Time;durP1;ratioP1;P1;durP2;ratioP2;P2;SDS_P1;SDS_P2;PMS_P1;PMS_P2;Temp;Humidity;BMP_temperature;BMP_pressure;BME280_temperature;BME280_humidity;BME280_pressure;Samples;Min_cycle;Max_cycle;Signal;HPM_P1;HPM_P2
2023/07/06 03:16:24;;;;;;;5.95;1.90;;;16.00;99.90;;;;;;6106573;22;89340;31
2023/07/06 03:18:50;;;;;;;4.43;1.88;;;15.90;99.90;;;;;;6066797;23;87580;-75
2023/07/06 03:21:16;;;;;;;4.60;1.60;;;15.90;99.90;;;;;;6068697;23;87272;-74
2023/07/06 03:23:41;;;;;;;6.43;1.48;;;15.80;99.90;;;;;;6068075;23;86745;-76
2023/07/06 03:26:08;;;;;;;11.88;1.40;;;15.80;99.90;;;;;;6063556;23;87702;-72
2023/07/06 03:28:35;;;;;;;9.75;1.75;;;15.80;99.90;;;;;;6065890;23;87633;-72
2023/07/06 03:31:01;;;;;;;5.15;1.65;;;15.90;99.90;;;;;;6066774;23;88020;-72
2023/07/06 03:33:27;;;;;;;6.63;1.80;;;15.90;99.90;;;;;;6068427;23;87440;-72
2023/07/06 03:35:54;;;;;;;6.38;1.55;;;15.90;99.90;;;;;;6067273;23;88114;-73
2023/07/06 03:38:21;;;;;;;4.20;1.60;;;16.10;99.90;;;;;;6067510;23;88191;-72
2023/07/06 03:40:50;;;;;;;5.78;1.80;;;16.20;99.90;;;;;;6042472;23;87584;-73
2023/07/06 03:43:17;;;;;;;5.80;1.88;;;16.30;99.90;;;;;;6067123;23;87254;-78
2023/07/06 03:45:46;;;;;;;5.43;2.25;;;16.40;99.90;;;;;;6067297;23;88597;-78
2023/07/06 03:48:12;;;;;;;4.43;1.40;;;16.50;99.90;;;;;;6067443;23;88071;-74
2023/07/06 03:50:38;;;;;;;4.65;1.70;;;16.60;99.90;;;;;;6068123;23;87628;-75
2023/07/06 03:53:04;;;;;;;4.40;1.95;;;16.70;99.90;;;;;;6067392;23;87562;-73
2023/07/06 03:55:29;;;;;;;4.07;1.52;;;16.70;99.90;;;;;;6067303;23;88925;-72
2023/07/06 03:57:57;;;;;;;7.22;1.83;;;16.80;99.90;;;;;;6068309;23;89234;-73
2023/07/06 04:00:24;;;;;;;4.68;1.70;;;16.90;99.90;;;;;;6067246;23;87964;-71
2023/07/06 04:02:52;;;;;;;4.82;1.77;;;17.20;99.90;;;;;;6068843;23;87093;-74
2023/07/06 04:05:22;;;;;;;5.55;1.48;;;17.50;99.90;;;;;;6067496;23;88043;-72
2023/07/06 04:07:57;;;;;;;;;;;17.80;99.90;;;;;;6068095;23;87957;-71
2023/07/06 04:10:23;;;;;;;3.70;1.50;;;18.00;99.90;;;;;;6069547;23;87391;-75
2023/07/06 04:12:49;;;;;;;7.13;1.50;;;18.10;99.90;;;;;;6068502;23;88159;-73
2023/07/06 04:15:17;;;;;;;4.72;1.50;;;18.10;99.90;;;;;;6066819;23;88224;-71
2023/07/06 04:17:53;;;;;;;3.78;1.75;;;18.00;99.90;;;;;;6103814;23;87772;-71
2023/07/06 04:20:25;;;;;;;3.75;1.42;;;17.80;99.90;;;;;;6125985;23;88156;-70
2023/07/06 04:22:54;;;;;;;4.03;1.73;;;17.70;99.90;;;;;;6127412;23;87639;-70
2023/07/06 04:25:21;;;;;;;5.50;1.40;;;17.70;99.90;;;;;;6127123;23;87074;-71
2023/07/06 04:27:47;;;;;;;3.85;1.52;;;17.70;99.90;;;;;;6126614;23;88491;-70
2023/07/06 04:30:15;;;;;;;4.68;1.50;;;17.70;99.90;;;;;;6125545;23;87561;-71
2023/07/06 04:32:42;;;;;;;4.30;1.50;;;17.80;99.90;;;;;;6127185;23;87684;-72
2023/07/06 04:35:12;;;;;;;6.32;1.90;;;17.80;99.90;;;;;;6127055;23;88291;-70
2023/07/06 04:37:37;;;;;;;4.15;1.20;;;17.80;99.90;;;;;;6127212;23;87890;-72
2023/07/06 04:40:13;;;;;;;3.40;1.30;;;17.80;99.90;;;;;;6127871;23;87100;-72
2023/07/06 04:42:40;;;;;;;4.70;1.23;;;17.90;99.90;;;;;;6128383;23;87053;-71
2023/07/06 04:45:10;;;;;;;3.60;1.52;;;17.90;99.90;;;;;;6124948;23;88682;-74
2023/07/06 04:47:38;;;;;;;3.67;1.40;;;18.00;99.90;;;;;;6125870;23;89635;-72
2023/07/06 04:50:06;;;;;;;6.40;1.80;;;18.10;99.90;;;;;;6126652;23;87588;-72
2023/07/06 04:52:33;;;;;;;4.28;1.42;;;18.10;99.90;;;;;;6126784;23;87737;-72
2023/07/06 04:54:59;;;;;;;3.30;1.20;;;18.10;99.90;;;;;;6125530;23;89050;-71
2023/07/06 04:57:25;;;;;;;3.65;1.52;;;18.20;99.90;;;;;;6125163;23;88682;-70
2023/07/06 04:59:51;;;;;;;4.03;1.58;;;18.40;99.20;;;;;;6126068;23;87223;-70
2023/07/06 05:02:17;;;;;;;3.63;1.67;;;19.40;97.00;;;;;;6125371;23;86596;-71
2023/07/06 05:04:43;;;;;;;6.25;1.55;;;19.80;95.50;;;;;;6125774;23;88757;-72
2023/07/06 05:07:11;;;;;;;5.22;1.33;;;20.20;94.20;;;;;;6124227;23;87465;-72
2023/07/06 05:09:40;;;;;;;4.03;1.50;;;21.30;91.70;;;;;;6122691;23;88322;-70
2023/07/06 05:12:07;;;;;;;5.97;1.75;;;21.60;87.90;;;;;;6127108;23;87308;-71
2023/07/06 05:14:34;;;;;;;6.15;1.80;;;21.80;86.20;;;;;;6126211;23;88445;-72
2023/07/06 05:17:00;;;;;;;3.40;1.65;;;21.50;85.50;;;;;;6126101;23;87714;-71
2023/07/06 05:19:27;;;;;;;5.07;1.65;;;21.20;86.00;;;;;;6126874;23;87461;-71
2023/07/06 05:21:55;;;;;;;6.88;2.13;;;21.50;86.60;;;;;;6126753;23;87420;-74
2023/07/06 05:24:21;;;;;;;5.38;1.77;;;21.80;84.40;;;;;;6126543;23;87959;-72
2023/07/06 05:26:47;;;;;;;4.38;2.13;;;23.20;82.00;;;;;;6125065;23;87809;-71
2023/07/06 05:29:12;;;;;;;4.82;1.90;;;24.40;75.10;;;;;;6127454;23;87570;-71
2023/07/06 05:31:38;;;;;;;5.95;1.80;;;24.80;73.50;;;;;;6127839;23;87432;-71
2023/07/06 05:34:04;;;;;;;6.50;1.90;;;24.50;72.70;;;;;;6124200;23;89174;-70
2023/07/06 05:36:29;;;;;;;4.35;1.80;;;24.10;73.30;;;;;;6124374;23;88559;-72
2023/07/06 05:38:55;;;;;;;5.65;1.80;;;23.60;74.70;;;;;;6127464;23;87324;-71
2023/07/06 05:41:21;;;;;;;4.28;1.52;;;23.30;76.70;;;;;;6125154;23;87012;-74
2023/07/06 05:43:46;;;;;;;5.00;2.00;;;22.80;77.20;;;;;;6125121;23;88486;-70
2023/07/06 05:46:12;;;;;;;5.25;1.83;;;22.50;78.70;;;;;;6125710;23;87294;-71
2023/07/06 05:48:38;;;;;;;5.53;1.80;;;22.30;78.30;;;;;;6126139;23;87167;-71
2023/07/06 05:51:03;;;;;;;7.07;1.98;;;22.00;79.60;;;;;;6126435;23;86653;-72
2023/07/06 05:53:29;;;;;;;7.95;1.65;;;22.00;79.50;;;;;;6125514;23;88372;-71
2023/07/06 05:55:54;;;;;;;6.00;1.90;;;22.50;79.70;;;;;;6125098;23;87656;-70
2023/07/06 05:58:20;;;;;;;5.15;1.83;;;23.70;76.80;;;;;;6125288;23;88449;-70
2023/07/06 06:00:46;;;;;;;4.82;1.73;;;24.90;72.00;;;;;;6126571;23;87400;-70
2023/07/06 06:03:11;;;;;;;5.32;2.13;;;25.50;69.50;;;;;;6124559;23;88214;-72
2023/07/06 06:05:39;;;;;;;4.05;2.10;;;26.50;67.90;;;;;;6126406;23;87319;-71
2023/07/06 06:08:05;;;;;;;4.05;1.92;;;27.00;63.90;;;;;;6125393;23;87314;-72
2023/07/06 06:10:33;;;;;;;4.43;1.70;;;27.50;63.40;;;;;;6126485;23;87213;-73
2023/07/06 06:12:58;;;;;;;6.68;2.13;;;28.10;61.00;;;;;;6126111;23;87399;-72
2023/07/06 06:15:25;;;;;;;6.22;2.38;;;28.60;61.00;;;;;;6124974;23;88508;-71
2023/07/06 06:17:50;;;;;;;7.15;2.55;;;30.00;59.70;;;;;;6125568;23;87424;-72
2023/07/06 06:20:16;;;;;;;6.25;2.20;;;31.10;55.40;;;;;;6125600;23;88066;-71
2023/07/06 06:22:42;;;;;;;5.50;2.13;;;30.80;53.20;;;;;;6125059;23;88286;-71
2023/07/06 06:25:08;;;;;;;5.22;2.05;;;30.30;55.10;;;;;;6126951;23;87527;-71
2023/07/06 06:27:34;;;;;;;6.25;1.90;;;29.70;54.70;;;;;;6127748;23;87285;-71
2023/07/06 06:30:00;;;;;;;6.05;2.00;;;28.90;57.10;;;;;;6128171;23;87120;-72
2023/07/06 06:32:26;;;;;;;8.00;3.25;;;28.10;57.80;;;;;;6127202;23;87285;-72
2023/07/06 06:34:52;;;;;;;13.35;2.40;;;27.90;58.40;;;;;;6126610;23;87619;-71
2023/07/06 06:37:18;;;;;;;6.78;3.38;;;28.50;56.20;;;;;;6127759;23;87146;-71
2023/07/06 06:39:44;;;;;;;9.10;3.83;;;28.40;57.30;;;;;;6128098;23;86445;-71
2023/07/06 06:42:13;;;;;;;6.57;2.55;;;28.80;57.20;;;;;;6128038;23;88702;-71
2023/07/06 06:44:41;;;;;;;5.70;2.30;;;29.60;57.50;;;;;;6127191;23;87694;-72
2023/07/06 06:47:07;;;;;;;;;;;30.70;54.80;;;;;;6126950;23;88210;-71
2023/07/06 06:49:33;;;;;;;8.20;2.83;;;31.70;51.70;;;;;;6129104;23;87488;-71
2023/07/06 06:52:01;;;;;;;5.20;2.75;;;32.10;50.30;;;;;;6127037;23;88517;-72
2023/07/06 06:54:28;;;;;;;5.57;2.33;;;33.50;49.90;;;;;;6125721;23;87694;-71
2023/07/06 06:56:54;;;;;;;25.58;6.38;;;34.80;48.20;;;;;;6126424;23;87302;-74
2023/07/06 06:59:20;;;;;;;4.25;2.53;;;35.10;47.00;;;;;;6123656;23;87488;-71
2023/07/06 07:01:46;;;;;;;6.05;2.60;;;34.90;46.60;;;;;;6125869;23;87968;-70
2023/07/06 07:04:11;;;;;;;4.40;1.95;;;34.20;46.80;;;;;;6124288;23;88380;-70
2023/07/06 07:06:38;;;;;;;4.65;2.25;;;33.20;46.90;;;;;;6125447;23;87274;-70
2023/07/06 07:09:05;;;;;;;4.88;1.92;;;31.90;48.50;;;;;;6125716;23;87394;-69
2023/07/06 07:11:31;;;;;;;4.82;2.22;;;30.80;51.20;;;;;;6124665;23;88446;-70
2023/07/06 07:13:56;;;;;;;5.40;3.55;;;30.40;51.40;;;;;;6124765;23;89064;-70
2023/07/06 07:16:23;;;;;;;2.92;1.80;;;29.80;52.00;;;;;;6125114;23;87073;-70
2023/07/06 07:18:49;;;;;;;5.05;1.73;;;29.60;53.10;;;;;;6125584;23;86977;-71
2023/07/06 07:21:16;;;;;;;3.53;1.98;;;29.60;52.70;;;;;;6125589;23;88630;-70
2023/07/06 07:23:45;;;;;;;3.45;1.83;;;29.70;53.80;;;;;;6124573;23;88403;-73
2023/07/06 07:26:13;;;;;;;5.43;2.15;;;29.50;52.20;;;;;;6124261;23;87573;-70
2023/07/06 07:28:39;;;;;;;5.10;2.15;;;29.10;53.60;;;;;;6127249;23;86817;-69
2023/07/06 07:31:11;;;;;;;5.72;1.98;;;29.10;55.30;;;;;;6126453;23;88236;-70
2023/07/06 07:33:38;;;;;;;4.22;2.00;;;28.80;54.80;;;;;;6127374;23;87535;-71
2023/07/06 07:36:04;;;;;;;5.20;2.17;;;28.40;54.50;;;;;;6126095;23;88325;-70
2023/07/06 07:38:30;;;;;;;6.05;2.70;;;28.20;55.40;;;;;;6127302;23;87386;-70
2023/07/06 07:40:59;;;;;;;8.55;2.35;;;27.90;56.00;;;;;;6127882;23;88318;-69
2023/07/06 07:43:28;;;;;;;5.50;2.17;;;27.70;57.80;;;;;;6101601;23;91405;-69
2023/07/06 07:45:55;;;;;;;6.00;2.75;;;27.90;58.10;;;;;;6128612;23;87427;-69
2023/07/06 07:48:23;;;;;;;6.60;2.53;;;27.90;58.80;;;;;;6128370;23;87067;-70
2023/07/06 07:50:56;;;;;;;6.15;2.63;;;28.20;59.70;;;;;;6127530;23;87622;-69
2023/07/06 07:53:26;;;;;;;5.32;2.90;;;29.70;58.30;;;;;;6128661;23;87331;-70
2023/07/06 07:55:54;;;;;;;5.88;2.72;;;30.10;56.10;;;;;;6128113;23;87449;-69
2023/07/06 07:58:22;;;;;;;4.75;2.72;;;29.70;56.40;;;;;;6128823;23;87299;-70
2023/07/06 08:00:49;;;;;;;6.22;2.45;;;29.20;57.10;;;;;;6127533;23;89344;-70
2023/07/06 08:03:16;;;;;;;4.80;2.72;;;28.40;58.20;;;;;;6127709;23;88341;-70
2023/07/06 08:05:42;;;;;;;8.57;3.10;;;28.10;59.10;;;;;;6128057;23;87339;-69
2023/07/06 08:08:11;;;;;;;3.90;2.60;;;28.30;58.70;;;;;;6128698;23;87662;-69
2023/07/06 08:10:40;;;;;;;5.80;3.85;;;28.20;57.40;;;;;;6127964;23;88034;-69
2023/07/06 08:13:09;;;;;;;4.32;2.38;;;28.20;57.90;;;;;;6128023;23;87565;-69
2023/07/06 08:15:39;;;;;;;9.57;3.03;;;28.20;58.30;;;;;;6128054;23;87434;-69
2023/07/06 08:18:09;;;;;;;5.28;3.17;;;28.40;58.70;;;;;;6128827;23;86295;-70
2023/07/06 08:20:35;;;;;;;6.72;3.13;;;29.40;57.20;;;;;;6127852;23;88556;-69
2023/07/06 08:23:04;;;;;;;5.82;3.10;;;30.80;55.80;;;;;;6127965;23;87852;-69
2023/07/06 08:25:37;;;;;;;6.30;2.70;;;32.30;51.90;;;;;;6127286;23;88336;-70
2023/07/06 08:28:05;;;;;;;7.55;2.92;;;33.70;48.50;;;;;;6128532;23;87335;-70
2023/07/06 08:30:32;;;;;;;5.22;3.47;;;34.50;48.00;;;;;;6127690;23;87720;-70
2023/07/06 08:33:02;;;;;;;5.30;3.30;;;35.40;46.60;;;;;;6128260;23;87436;-70
2023/07/06 08:35:29;;;;;;;4.43;3.25;;;34.90;45.20;;;;;;6127970;23;87363;-69
2023/07/06 08:37:55;;;;;;;5.30;3.30;;;34.40;47.50;;;;;;6128179;23;87417;-70
2023/07/06 08:40:25;;;;;;;5.68;4.03;;;34.60;48.20;;;;;;6128126;23;87489;-70
2023/07/06 08:42:50;;;;;;;6.68;4.05;;;34.90;47.50;;;;;;6128582;23;87907;-71
2023/07/06 08:45:21;;;;;;;4.40;3.28;;;36.40;44.50;;;;;;6128245;23;87041;-70
2023/07/06 08:47:48;;;;;;;6.45;3.78;;;36.80;43.50;;;;;;6128397;23;87370;-71
2023/07/06 08:50:20;;;;;;;9.38;4.05;;;36.40;45.80;;;;;;6127085;23;89041;-71
2023/07/06 08:52:46;;;;;;;5.07;3.70;;;35.80;45.20;;;;;;6127821;23;89000;-70
2023/07/06 08:55:15;;;;;;;8.25;3.95;;;35.40;46.80;;;;;;6126900;23;87260;-69
2023/07/06 08:57:41;;;;;;;7.20;3.65;;;34.80;46.90;;;;;;6126487;23;87307;-70
2023/07/06 09:00:21;;;;;;;7.05;3.70;;;34.10;46.30;;;;;;6127889;23;87353;-69
2023/07/06 09:02:48;;;;;;;6.43;3.63;;;33.20;48.30;;;;;;6128128;23;87844;-69
2023/07/06 09:05:15;;;;;;;4.85;2.92;;;32.90;49.30;;;;;;6126997;23;87418;-69
2023/07/06 09:07:45;;;;;;;6.28;3.10;;;32.50;49.70;;;;;;6128233;23;86911;-70
2023/07/06 09:10:23;;;;;;;5.45;3.15;;;32.60;49.70;;;;;;6127878;23;87547;-70
2023/07/06 09:12:51;;;;;;;5.35;2.97;;;32.80;49.10;;;;;;6128159;23;87765;-68
2023/07/06 09:15:19;;;;;;;8.07;3.20;;;32.80;49.40;;;;;;6126958;23;88199;-69
2023/07/06 09:17:48;;;;;;;4.68;3.03;;;32.60;49.20;;;;;;6121610;23;87285;-70
2023/07/06 09:20:16;;;;;;;6.50;3.53;;;32.40;50.20;;;;;;6125396;23;87160;-69
2023/07/06 09:22:42;;;;;;;;;;;33.20;48.00;;;;;;6123648;23;87500;-72
2023/07/06 09:25:35;;;;;;;5.82;3.35;;;33.10;47.60;;;;;;6129263;23;87318;-70
2023/07/06 09:28:01;;;;;;;4.78;3.70;;;33.40;47.50;;;;;;6126186;23;87358;-71
2023/07/06 09:30:33;;;;;;;4.75;2.97;;;33.90;48.50;;;;;;6126851;23;87749;-69
2023/07/06 09:33:24;;;;;;;5.80;3.25;;;34.00;48.80;;;;;;6126914;23;88974;-69
2023/07/06 09:35:52;;;;;;;5.90;3.65;;;34.20;46.60;;;;;;6127177;23;87533;-69
2023/07/06 09:38:19;;;;;;;4.50;3.40;;;35.10;47.20;;;;;;6128224;23;87465;-69
2023/07/06 09:40:46;;;;;;;6.25;3.63;;;35.90;44.90;;;;;;6126099;23;89006;-69
2023/07/06 09:43:38;;;;;;;6.32;3.35;;;37.60;44.60;;;;;;6126915;23;88511;-70
2023/07/06 09:46:08;;;;;;;8.27;4.35;;;38.80;42.00;;;;;;6120616;23;87344;-69
2023/07/06 09:48:37;;;;;;;4.70;3.60;;;38.80;40.90;;;;;;6127751;23;87673;-69
2023/07/06 09:51:11;;;;;;;4.85;3.25;;;38.90;41.10;;;;;;6126203;23;88488;-70
2023/07/06 09:54:00;;;;;;;6.40;3.85;;;39.10;40.80;;;;;;6124276;23;87720;-70
2023/07/06 09:56:28;;;;;;;5.25;4.57;;;39.70;41.00;;;;;;6125005;23;87285;-71
2023/07/06 09:58:54;;;;;;;8.30;3.72;;;40.30;39.20;;;;;;6127533;23;86725;-70
2023/07/06 10:01:57;;;;;;;5.85;4.63;;;40.40;39.00;;;;;;6126021;23;89457;-70
2023/07/06 10:05:03;;;;;;;4.53;3.85;;;40.40;37.90;;;;;;6126605;23;87803;-70
2023/07/06 10:08:06;;;;;;;3.90;3.40;;;39.90;37.90;;;;;;6123095;23;88176;-73
2023/07/06 10:10:48;;;;;;;4.60;3.40;;;37.70;40.30;;;;;;6126565;23;87529;-72
2023/07/06 10:13:37;;;;;;;5.65;3.00;;;36.20;41.70;;;;;;6126942;23;87787;-70
2023/07/06 10:16:11;;;;;;;6.65;3.35;;;35.30;43.40;;;;;;6124926;23;87561;-69
2023/07/06 10:18:50;;;;;;;6.80;2.75;;;34.20;44.70;;;;;;6122568;23;87915;-69
2023/07/06 10:21:36;;;;;;;6.22;2.78;;;33.60;47.00;;;;;;6121495;23;87596;-69
2023/07/06 10:24:28;;;;;;;3.88;2.42;;;32.80;45.10;;;;;;6119429;23;87346;-71
2023/07/06 10:26:56;;;;;;;4.25;3.05;;;32.10;47.90;;;;;;6123334;23;87827;-70
2023/07/06 10:29:30;;;;;;;3.22;2.35;;;31.60;48.80;;;;;;6123893;23;87151;-72
2023/07/06 10:32:09;;;;;;;5.55;2.60;;;31.20;48.30;;;;;;6124070;23;87061;-70
2023/07/06 10:34:44;;;;;;;4.72;2.15;;;30.70;50.40;;;;;;6125706;23;89458;-69
2023/07/06 10:37:14;;;;;;;4.80;2.47;;;30.50;49.30;;;;;;6125168;23;88676;-71
2023/07/06 10:39:43;;;;;;;6.35;2.45;;;30.10;47.20;;;;;;6124146;23;87030;-69
2023/07/06 10:42:20;;;;;;;4.15;2.55;;;29.80;48.10;;;;;;6125793;23;87554;-68
2023/07/06 10:44:51;;;;;;;3.45;1.88;;;29.40;50.80;;;;;;6124292;23;87825;-69
2023/07/06 10:47:28;;;;;;;4.03;2.25;;;29.30;51.60;;;;;;6119022;23;87546;-72
2023/07/06 10:50:19;;;;;;;3.97;1.98;;;29.30;51.50;;;;;;6119262;23;87425;-72
2023/07/06 10:53:03;;;;;;;4.20;2.33;;;29.00;53.20;;;;;;6120583;23;86594;-70
2023/07/06 10:55:34;;;;;;;4.70;2.05;;;29.00;52.70;;;;;;6119911;23;88275;-70
2023/07/06 10:58:21;;;;;;;5.32;3.15;;;28.90;52.80;;;;;;6117931;23;88225;-72
2023/07/06 11:00:48;;;;;;;4.53;2.42;;;28.80;51.00;;;;;;6121251;23;88291;-70
2023/07/06 11:03:23;;;;;;;3.80;1.98;;;28.80;52.30;;;;;;6124476;23;87569;-71
2023/07/06 11:06:08;;;;;;;3.20;2.00;;;28.60;50.30;;;;;;6125422;23;87620;-72
2023/07/06 11:09:04;;;;;;;4.15;2.13;;;28.40;51.20;;;;;;6124853;23;87488;-71
2023/07/06 11:11:34;;;;;;;3.92;2.30;;;28.40;51.00;;;;;;6125665;23;87458;-72
2023/07/06 11:14:33;;;;;;;4.80;2.03;;;28.50;53.80;;;;;;6126906;23;87324;-71
2023/07/06 11:17:04;;;;;;;5.07;1.67;;;28.60;51.40;;;;;;6112104;23;87434;-71
2023/07/06 11:19:38;;;;;;;3.65;1.73;;;28.40;50.70;;;;;;6125145;23;87961;-71
2023/07/06 11:22:13;;;;;;;3.78;2.15;;;28.40;49.80;;;;;;6123207;23;87772;-71
2023/07/06 11:24:48;;;;;;;3.85;2.53;;;28.30;49.90;;;;;;6123130;23;87628;-72
2023/07/06 11:27:36;;;;;;;3.67;1.65;;;28.20;50.10;;;;;;6124849;23;88221;-70
2023/07/06 11:30:03;;;;;;;;;;;28.10;50.60;;;;;;6122898;23;89515;-71
2023/07/06 11:33:13;;;;;;;4.38;2.40;;;28.10;54.80;;;;;;6126909;23;87660;-71
2023/07/06 11:35:38;;;;;;;3.78;2.20;;;28.10;52.80;;;;;;6117159;23;87517;-71
2023/07/06 11:38:28;;;;;;;5.50;1.83;;;28.20;53.10;;;;;;6125470;23;88131;-72
2023/07/06 11:41:10;;;;;;;4.82;1.85;;;28.10;53.50;;;;;;6126078;23;88092;-70
2023/07/06 11:43:47;;;;;;;8.65;1.98;;;28.10;53.00;;;;;;6127576;23;87300;-72
2023/07/06 11:46:55;;;;;;;5.63;1.80;;;28.30;54.40;;;;;;6129028;23;86822;-73
2023/07/06 11:49:44;;;;;;;4.47;1.83;;;28.40;50.10;;;;;;6107258;23;87881;-73
2023/07/06 11:52:14;;;;;;;3.05;1.55;;;28.40;51.00;;;;;;6127129;23;87378;-72
2023/07/06 11:54:49;;;;;;;7.22;2.33;;;28.40;50.10;;;;;;6126950;23;88806;-70
2023/07/06 11:57:41;;;;;;;5.32;2.10;;;28.30;51.20;;;;;;6127906;23;87374;-72
2023/07/06 12:02:40;;;;;;;2.58;1.63;;;28.20;50.20;;;;;;6127075;23;87385;-72
2023/07/06 12:05:23;;;;;;;3.65;1.50;;;28.20;50.50;;;;;;6127168;23;87387;-71
2023/07/06 12:07:59;;;;;;;3.20;1.50;;;28.30;48.10;;;;;;6127787;23;87216;-72
2023/07/06 12:10:26;;;;;;;3.72;1.38;;;28.30;50.60;;;;;;6127509;23;88514;-71
2023/07/06 12:12:54;;;;;;;3.20;1.20;;;28.30;46.80;;;;;;6127785;23;87736;-72
2023/07/06 12:15:22;;;;;;;2.67;1.30;;;28.20;47.80;;;;;;6127268;23;87300;-72
2023/07/06 12:17:57;;;;;;;3.40;1.00;;;28.20;48.50;;;;;;6126857;23;87524;-69
2023/07/06 12:20:26;;;;;;;3.20;1.40;;;28.10;48.60;;;;;;6126613;23;89648;-70
2023/07/06 12:23:00;;;;;;;3.53;1.15;;;28.00;49.90;;;;;;6126655;23;88301;-71
2023/07/06 12:25:30;;;;;;;5.00;1.23;;;28.10;46.70;;;;;;6127622;23;87185;-70
2023/07/06 12:28:00;;;;;;;7.32;1.15;;;28.10;47.00;;;;;;6127567;23;86986;-71
2023/07/06 12:30:33;;;;;;;2.35;1.13;;;28.00;46.30;;;;;;6127222;23;87749;-71
2023/07/06 12:33:08;;;;;;;2.42;0.88;;;27.90;45.00;;;;;;6126646;23;88213;-69
2023/07/06 12:35:35;;;;;;;2.35;1.00;;;28.10;45.90;;;;;;6128101;23;87037;-71
2023/07/06 12:38:09;;;;;;;2.35;0.85;;;28.20;46.30;;;;;;6128294;23;86500;-70
2023/07/06 12:40:35;;;;;;;2.72;1.02;;;28.00;45.40;;;;;;6126299;23;87276;-70
2023/07/06 12:43:03;;;;;;;2.35;1.13;;;28.10;47.10;;;;;;6126570;23;87466;-73
2023/07/06 12:45:30;;;;;;;1.85;0.93;;;28.10;45.60;;;;;;6126854;23;88299;-70
2023/07/06 12:48:03;;;;;;;3.58;2.10;;;28.10;43.80;;;;;;6126966;23;87426;-71
2023/07/06 12:50:35;;;;;;;2.40;1.00;;;28.00;44.10;;;;;;6125457;23;88478;-71
2023/07/06 12:53:28;;;;;;;4.50;1.42;;;28.10;47.00;;;;;;6123977;23;90469;-70
2023/07/06 12:56:08;;;;;;;2.88;1.17;;;28.20;47.70;;;;;;6122187;23;87091;-70
2023/07/06 12:58:36;;;;;;;1.80;0.85;;;28.30;46.00;;;;;;6128645;23;87308;-70
2023/07/06 13:01:08;;;;;;;4.10;1.10;;;28.30;45.00;;;;;;6128287;23;88152;-70
2023/07/06 13:03:59;;;;;;;3.10;0.98;;;28.30;42.00;;;;;;6128356;23;87157;-70
2023/07/06 13:06:27;;;;;;;1.88;0.90;;;28.40;44.80;;;;;;6128001;23;87432;-70
2023/07/06 13:09:01;;;;;;;2.63;1.60;;;28.40;45.80;;;;;;6127932;23;87289;-70
2023/07/06 13:11:27;;;;;;;2.33;0.93;;;28.50;45.50;;;;;;6127455;23;88287;-71
2023/07/06 13:14:02;;;;;;;4.68;1.08;;;28.50;45.10;;;;;;6127764;23;88188;-70
2023/07/06 13:16:39;;;;;;;4.15;1.15;;;28.60;47.80;;;;;;6127400;23;87025;-73
2023/07/06 13:19:05;;;;;;;2.83;0.90;;;28.60;46.50;;;;;;6127245;23;87324;-70
2023/07/06 13:21:33;;;;;;;3.38;1.15;;;28.70;44.60;;;;;;6126828;23;87545;-71
2023/07/06 13:23:59;;;;;;;3.72;0.93;;;28.70;43.40;;;;;;6127043;23;87437;-72
2023/07/06 13:26:26;;;;;;;2.70;1.20;;;28.70;44.50;;;;;;6127487;23;87340;-70
2023/07/06 13:28:55;;;;;;;2.63;1.08;;;28.60;43.80;;;;;;6127862;23;86700;-69
2023/07/06 13:31:24;;;;;;;2.25;0.82;;;28.50;44.90;;;;;;6127481;23;88460;-71
2023/07/06 13:33:49;;;;;;;2.53;1.27;;;28.50;45.10;;;;;;6127026;23;89141;-72
2023/07/06 13:36:17;;;;;;;2.58;1.13;;;28.40;42.90;;;;;;6127028;23;88227;-70
2023/07/06 13:38:45;;;;;;;3.17;1.02;;;28.40;44.70;;;;;;6127485;23;87464;-71
2023/07/06 13:41:16;;;;;;;2.55;1.20;;;28.30;45.20;;;;;;6125351;23;88821;-71
2023/07/06 13:43:43;;;;;;;2.65;1.50;;;28.40;45.90;;;;;;6127325;23;87268;-71
2023/07/06 13:46:10;;;;;;;3.22;1.50;;;28.30;44.40;;;;;;6128301;23;87389;-70
2023/07/06 13:48:37;;;;;;;2.15;1.17;;;28.30;44.40;;;;;;6127736;23;87443;-69
2023/07/06 13:51:04;;;;;;;3.00;1.15;;;28.30;44.90;;;;;;6126811;23;88150;-69
2023/07/06 13:53:30;;;;;;;3.30;1.13;;;28.20;45.40;;;;;;6127726;23;87805;-70
2023/07/06 13:55:56;;;;;;;2.53;1.00;;;28.20;43.70;;;;;;6128293;23;87350;-72
2023/07/06 13:58:24;;;;;;;4.03;0.98;;;28.00;44.90;;;;;;6128008;23;87808;-71
2023/07/06 14:00:51;;;;;;;1.85;0.98;;;27.90;42.40;;;;;;6126966;23;88477;-70
2023/07/06 14:03:23;;;;;;;1.63;0.63;;;28.00;44.90;;;;;;6124800;23;87527;-70
2023/07/06 14:05:51;;;;;;;2.28;1.00;;;27.90;42.90;;;;;;6123403;23;87642;-70
2023/07/06 14:08:21;;;;;;;2.15;0.82;;;28.00;47.40;;;;;;6127612;23;87386;-73
2023/07/06 14:10:48;;;;;;;2.10;0.70;;;28.10;46.60;;;;;;6125222;23;87184;-70
2023/07/06 14:13:16;;;;;;;3.58;1.10;;;28.00;45.90;;;;;;6127484;23;88234;-72
2023/07/06 14:15:42;;;;;;;2.20;1.00;;;28.10;47.30;;;;;;6127175;23;87272;-72
2023/07/06 14:18:09;;;;;;;2.45;1.00;;;28.10;48.70;;;;;;6127821;23;86326;-72
2023/07/06 14:20:36;;;;;;;2.85;1.27;;;28.10;46.90;;;;;;6127210;23;89592;-71
2023/07/06 14:23:03;;;;;;;1.80;0.80;;;28.20;47.10;;;;;;6127166;23;89477;-71
2023/07/06 14:25:32;;;;;;;2.03;0.63;;;28.00;45.10;;;;;;6123604;23;88249;-70
2023/07/06 14:27:57;;;;;;;2.47;1.30;;;28.00;48.60;;;;;;6127087;23;87354;-69
2023/07/06 14:30:26;;;;;;;3.35;0.90;;;28.10;46.30;;;;;;6126727;23;88819;-70
2023/07/06 14:32:52;;;;;;;3.00;0.73;;;28.00;48.80;;;;;;6127390;23;87274;-72
2023/07/06 14:35:19;;;;;;;1.85;0.80;;;28.00;48.40;;;;;;6127221;23;87105;-73
2023/07/06 14:37:46;;;;;;;2.08;0.70;;;28.00;47.60;;;;;;6127753;23;87347;-72
2023/07/06 14:40:12;;;;;;;2.97;0.70;;;28.10;44.80;;;;;;6126594;23;87677;-71
2023/07/06 14:42:39;;;;;;;1.80;0.80;;;28.20;45.30;;;;;;6126748;23;87973;-71
2023/07/06 14:45:05;;;;;;;1.95;0.73;;;28.10;45.90;;;;;;6126938;23;87281;-73
2023/07/06 14:47:32;;;;;;;1.42;0.50;;;28.00;46.90;;;;;;6124116;23;87475;-71
2023/07/06 14:49:59;;;;;;;1.67;0.60;;;27.90;45.60;;;;;;6121417;23;88533;-73
2023/07/06 14:52:25;;;;;;;2.25;0.63;;;27.80;44.30;;;;;;6123079;23;89380;-71
2023/07/06 14:54:52;;;;;;;4.47;0.75;;;27.70;43.00;;;;;;6123012;23;87724;-71
2023/07/06 14:57:18;;;;;;;1.50;0.75;;;27.60;43.30;;;;;;6122950;23;87510;-71
2023/07/06 14:59:44;;;;;;;1.88;0.88;;;27.60;45.30;;;;;;6123160;23;88183;-72
2023/07/06 15:02:12;;;;;;;2.00;0.82;;;27.60;46.50;;;;;;6121215;23;87421;-71
2023/07/06 15:04:39;;;;;;;1.88;0.90;;;27.60;46.60;;;;;;6123854;23;87081;-72
2023/07/06 15:07:05;;;;;;;2.53;0.68;;;27.70;46.80;;;;;;6124933;23;86458;-71
2023/07/06 15:09:32;;;;;;;2.33;1.08;;;27.70;44.20;;;;;;6124909;23;87387;-70
2023/07/06 15:11:58;;;;;;;2.00;0.55;;;27.60;45.00;;;;;;6124709;23;87433;-71
2023/07/06 15:14:24;;;;;;;2.70;0.80;;;27.50;45.40;;;;;;6124398;23;88351;-71
2023/07/06 15:16:49;;;;;;;4.03;1.00;;;27.50;46.10;;;;;;6112614;23;87317;-70
2023/07/06 15:19:15;;;;;;;3.67;0.45;;;27.40;46.20;;;;;;6124222;23;87423;-70
2023/07/06 15:21:42;;;;;;;1.92;0.68;;;27.40;45.20;;;;;;6123884;23;87267;-72
2023/07/06 15:24:08;;;;;;;1.83;0.60;;;27.40;45.60;;;;;;6124846;23;86989;-72
2023/07/06 15:26:33;;;;;;;14.57;2.55;;;27.50;44.20;;;;;;6125195;23;87498;-55
2023/07/06 15:28:59;;;;;;;5.68;1.30;;;27.40;48.30;;;;;;6124378;23;88216;-51
2023/07/06 15:31:25;;;;;;;3.67;0.80;;;27.20;46.30;;;;;;6120396;23;87736;-51
2023/07/06 15:33:52;;;;;;;2.47;0.75;;;27.20;46.10;;;;;;6123567;23;87027;-50
2023/07/06 15:36:19;;;;;;;5.78;1.85;;;27.00;44.20;;;;;;6124477;23;87294;-49
2023/07/06 15:38:44;;;;;;;4.10;0.88;;;27.20;47.10;;;;;;6122565;23;88570;-51
2023/07/06 15:41:10;;;;;;;1.77;0.65;;;27.20;43.00;;;;;;6121182;23;87896;-74
2023/07/06 15:43:36;;;;;;;2.03;0.65;;;27.00;43.80;;;;;;6119447;23;87437;-71
2023/07/06 15:46:02;;;;;;;4.43;0.70;;;27.20;43.60;;;;;;6120921;23;87697;-69
2023/07/06 15:48:28;;;;;;;3.75;0.80;;;27.20;43.50;;;;;;6121046;23;87540;-70
2023/07/06 15:50:57;;;;;;;1.90;0.60;;;27.30;44.70;;;;;;6124497;23;87367;-74
2023/07/06 15:53:24;;;;;;;2.50;0.75;;;27.20;43.60;;;;;;6119921;23;87478;-73
2023/07/06 15:55:59;;;;;;;2.03;0.63;;;27.20;42.70;;;;;;6121081;23;86943;-71
2023/07/06 15:58:27;;;;;;;3.70;1.00;;;27.10;43.20;;;;;;6125656;23;88339;-72
2023/07/06 16:00:53;;;;;;;1.92;1.10;;;27.20;43.80;;;;;;6125171;23;87777;-70
2023/07/06 16:03:19;;;;;;;1.83;0.70;;;27.20;44.20;;;;;;6125739;23;88582;-70
2023/07/06 16:05:46;;;;;;;3.53;1.13;;;27.20;41.70;;;;;;6127286;23;87404;-71
2023/07/06 16:08:12;;;;;;;2.83;0.73;;;27.20;42.40;;;;;;6127946;23;87431;-73
2023/07/06 16:10:39;;;;;;;2.45;1.10;;;27.20;43.00;;;;;;6127497;23;87630;-70
2023/07/06 16:13:05;;;;;;;4.18;1.17;;;27.20;43.20;;;;;;6127743;23;87584;-71
2023/07/06 16:15:30;;;;;;;3.05;0.90;;;27.20;42.30;;;;;;6126985;23;87194;-71
2023/07/06 16:17:56;;;;;;;3.08;1.02;;;27.00;42.40;;;;;;6125246;23;88244;-72
2023/07/06 16:20:22;;;;;;;1.92;0.60;;;26.90;42.90;;;;;;6124243;23;87142;-70